sensor_id;sensor_type;location;lat;lon;timestamp;temperature;humidity
30473;DHT22;17263;48.160;11.452;2023-08-20T00:02:02;22.30;99.90
30473;DHT22;17263;48.160;11.452;2023-08-20T00:04:31;22.30;99.90
30473;DHT22;17263;48.160;11.452;2023-08-20T00:06:58;22.20;99.90
30473;DHT22;17263;48.160;11.452;2023-08-20T00:09:26;22.20;99.90
30473;DHT22;17263;48.160;11.452;2023-08-20T00:11:53;22.10;99.90
30473;DHT22;17263;48.160;11.452;2023-08-20T00:14:19;22.10;99.90
30473;DHT22;17263;48.160;11.452;2023-08-20T00:16:46;22.10;99.90
30473;DHT22;17263;48.160;11.452;2023-08-20T00:19:12;22.10;99.90
30473;DHT22;17263;48.160;11.452;2023-08-20T00:21:42;22.10;99.90
30473;DHT22;17263;48.160;11.452;2023-08-20T00:24:09;22.10;99.90
30473;DHT22;17263;48.160;11.452;2023-08-20T00:26:36;22.00;99.90
30473;DHT22;17263;48.160;11.452;2023-08-20T00:29:02;22.00;99.90
30473;DHT22;17263;48.160;11.452;2023-08-20T00:31:29;22.00;99.90
30473;DHT22;17263;48.160;11.452;2023-08-20T00:33:55;22.00;99.90
30473;DHT22;17263;48.160;11.452;2023-08-20T00:36:21;22.00;99.90
30473;DHT22;17263;48.160;11.452;2023-08-20T00:38:47;22.00;99.90
30473;DHT22;17263;48.160;11.452;2023-08-20T00:41:13;22.00;99.90
30473;DHT22;17263;48.160;11.452;2023-08-20T00:43:39;22.00;99.90
30473;DHT22;17263;48.160;11.452;2023-08-20T00:46:05;22.00;99.90
30473;DHT22;17263;48.160;11.452;2023-08-20T00:48:31;22.00;99.90
30473;DHT22;17263;48.160;11.452;2023-08-20T00:50:57;22.00;99.90
30473;DHT22;17263;48.160;11.452;2023-08-20T00:53:23;21.90;99.90
30473;DHT22;17263;48.160;11.452;2023-08-20T00:55:49;21.80;99.90
30473;DHT22;17263;48.160;11.452;2023-08-20T00:58:15;21.80;99.90
30473;DHT22;17263;48.160;11.452;2023-08-20T01:00:41;21.80;99.90
30473;DHT22;17263;48.160;11.452;2023-08-20T01:03:08;21.70;99.90
30473;DHT22;17263;48.160;11.452;2023-08-20T01:05:43;21.70;99.90
30473;DHT22;17263;48.160;11.452;2023-08-20T01:08:36;21.70;99.90
30473;DHT22;17263;48.160;11.452;2023-08-20T01:11:10;21.70;99.90
30473;DHT22;17263;48.160;11.452;2023-08-20T01:13:36;21.70;99.90
30473;DHT22;17263;48.160;11.452;2023-08-20T01:16:02;21.70;99.90
30473;DHT22;17263;48.160;11.452;2023-08-20T01:18:28;21.60;99.90
30473;DHT22;17263;48.160;11.452;2023-08-20T01:21:02;21.60;99.90
30473;DHT22;17263;48.160;11.452;2023-08-20T01:23:42;21.50;99.90
30473;DHT22;17263;48.160;11.452;2023-08-20T01:26:40;21.50;99.90
30473;DHT22;17263;48.160;11.452;2023-08-20T01:29:10;21.40;99.90
30473;DHT22;17263;48.160;11.452;2023-08-20T01:31:38;21.40;99.90
30473;DHT22;17263;48.160;11.452;2023-08-20T01:34:04;21.40;99.90
30473;DHT22;17263;48.160;11.452;2023-08-20T01:36:30;21.40;99.90
30473;DHT22;17263;48.160;11.452;2023-08-20T01:38:56;21.30;99.90
30473;DHT22;17263;48.160;11.452;2023-08-20T01:41:22;21.30;99.90
30473;DHT22;17263;48.160;11.452;2023-08-20T01:43:48;21.20;99.90
30473;DHT22;17263;48.160;11.452;2023-08-20T01:46:14;21.20;99.90
30473;DHT22;17263;48.160;11.452;2023-08-20T01:48:40;21.10;99.90
30473;DHT22;17263;48.160;11.452;2023-08-20T01:51:06;21.10;99.90
30473;DHT22;17263;48.160;11.452;2023-08-20T01:53:32;21.10;99.90
30473;DHT22;17263;48.160;11.452;2023-08-20T01:55:58;21.10;99.90
30473;DHT22;17263;48.160;11.452;2023-08-20T01:58:24;21.00;99.90
30473;DHT22;17263;48.160;11.452;2023-08-20T02:00:51;21.00;99.90
30473;DHT22;17263;48.160;11.452;2023-08-20T02:03:18;20.90;99.90
30473;DHT22;17263;48.160;11.452;2023-08-20T02:05:44;21.00;99.90
30473;DHT22;17263;48.160;11.452;2023-08-20T02:08:10;20.90;99.90
30473;DHT22;17263;48.160;11.452;2023-08-20T02:10:36;20.90;99.90
30473;DHT22;17263;48.160;11.452;2023-08-20T02:13:02;20.80;99.90
30473;DHT22;17263;48.160;11.452;2023-08-20T02:15:29;20.80;99.90
30473;DHT22;17263;48.160;11.452;2023-08-20T02:17:56;20.80;99.90
30473;DHT22;17263;48.160;11.452;2023-08-20T02:20:22;20.70;99.90
30473;DHT22;17263;48.160;11.452;2023-08-20T02:22:48;20.70;99.90
30473;DHT22;17263;48.160;11.452;2023-08-20T02:25:14;20.70;99.90
30473;DHT22;17263;48.160;11.452;2023-08-20T02:27:40;20.60;99.90
30473;DHT22;17263;48.160;11.452;2023-08-20T02:30:07;20.60;99.90
30473;DHT22;17263;48.160;11.452;2023-08-20T02:32:33;20.60;99.90
30473;DHT22;17263;48.160;11.452;2023-08-20T02:34:59;20.60;99.90
30473;DHT22;17263;48.160;11.452;2023-08-20T02:37:25;20.50;99.90
30473;DHT22;17263;48.160;11.452;2023-08-20T02:39:51;20.60;99.90
30473;DHT22;17263;48.160;11.452;2023-08-20T02:42:17;20.50;99.90
30473;DHT22;17263;48.160;11.452;2023-08-20T02:44:43;20.50;99.90
30473;DHT22;17263;48.160;11.452;2023-08-20T02:47:09;20.50;99.90
30473;DHT22;17263;48.160;11.452;2023-08-20T02:49:35;20.50;99.90
30473;DHT22;17263;48.160;11.452;2023-08-20T02:52:01;20.50;99.90
30473;DHT22;17263;48.160;11.452;2023-08-20T02:54:28;20.40;99.90
30473;DHT22;17263;48.160;11.452;2023-08-20T02:56:59;20.40;99.90
30473;DHT22;17263;48.160;11.452;2023-08-20T02:59:25;20.40;99.90
30473;DHT22;17263;48.160;11.452;2023-08-20T03:01:51;20.40;99.90
30473;DHT22;17263;48.160;11.452;2023-08-20T03:04:17;20.30;99.90
30473;DHT22;17263;48.160;11.452;2023-08-20T03:06:43;20.30;99.90
30473;DHT22;17263;48.160;11.452;2023-08-20T03:09:09;20.30;99.90
30473;DHT22;17263;48.160;11.452;2023-08-20T03:11:35;20.30;99.90
30473;DHT22;17263;48.160;11.452;2023-08-20T03:14:01;20.20;99.90
30473;DHT22;17263;48.160;11.452;2023-08-20T03:16:28;20.20;99.90
30473;DHT22;17263;48.160;11.452;2023-08-20T03:18:54;20.20;99.90
30473;DHT22;17263;48.160;11.452;2023-08-20T03:21:20;20.10;99.90
30473;DHT22;17263;48.160;11.452;2023-08-20T03:23:46;20.10;99.90
30473;DHT22;17263;48.160;11.452;2023-08-20T03:26:12;20.10;99.90
30473;DHT22;17263;48.160;11.452;2023-08-20T03:28:38;20.10;99.90
30473;DHT22;17263;48.160;11.452;2023-08-20T03:31:04;20.10;99.90
30473;DHT22;17263;48.160;11.452;2023-08-20T03:33:30;20.10;99.90
30473;DHT22;17263;48.160;11.452;2023-08-20T03:35:56;20.00;99.90
30473;DHT22;17263;48.160;11.452;2023-08-20T03:38:22;20.10;99.90
30473;DHT22;17263;48.160;11.452;2023-08-20T03:40:48;20.10;99.90
30473;DHT22;17263;48.160;11.452;2023-08-20T03:43:14;20.10;99.90
30473;DHT22;17263;48.160;11.452;2023-08-20T03:45:42;20.10;99.90
30473;DHT22;17263;48.160;11.452;2023-08-20T03:48:08;20.10;99.90
30473;DHT22;17263;48.160;11.452;2023-08-20T03:50:34;20.00;99.90
30473;DHT22;17263;48.160;11.452;2023-08-20T03:53:00;20.00;99.90
30473;DHT22;17263;48.160;11.452;2023-08-20T03:55:26;19.90;99.90
30473;DHT22;17263;48.160;11.452;2023-08-20T03:57:52;19.90;99.90
30473;DHT22;17263;48.160;11.452;2023-08-20T04:00:19;19.90;99.90
30473;DHT22;17263;48.160;11.452;2023-08-20T04:02:45;19.80;99.90
30473;DHT22;17263;48.160;11.452;2023-08-20T04:05:11;19.80;99.90
30473;DHT22;17263;48.160;11.452;2023-08-20T04:07:39;19.80;99.90
30473;DHT22;17263;48.160;11.452;2023-08-20T04:10:07;19.80;99.90
30473;DHT22;17263;48.160;11.452;2023-08-20T04:12:33;19.80;99.90
30473;DHT22;17263;48.160;11.452;2023-08-20T04:14:59;19.70;99.90
30473;DHT22;17263;48.160;11.452;2023-08-20T04:17:25;19.70;99.90
30473;DHT22;17263;48.160;11.452;2023-08-20T04:19:51;19.70;99.90
30473;DHT22;17263;48.160;11.452;2023-08-20T04:22:23;19.60;99.90
30473;DHT22;17263;48.160;11.452;2023-08-20T04:25:01;19.50;99.90
30473;DHT22;17263;48.160;11.452;2023-08-20T04:27:30;19.50;99.90
30473;DHT22;17263;48.160;11.452;2023-08-20T04:29:56;19.50;99.90
30473;DHT22;17263;48.160;11.452;2023-08-20T04:32:22;19.50;99.90
30473;DHT22;17263;48.160;11.452;2023-08-20T04:34:48;19.60;99.90
30473;DHT22;17263;48.160;11.452;2023-08-20T04:37:20;19.60;99.90
30473;DHT22;17263;48.160;11.452;2023-08-20T04:39:55;19.50;99.90
30473;DHT22;17263;48.160;11.452;2023-08-20T04:42:21;19.50;99.90
30473;DHT22;17263;48.160;11.452;2023-08-20T04:44:50;19.40;99.90
30473;DHT22;17263;48.160;11.452;2023-08-20T04:47:16;19.50;99.90
30473;DHT22;17263;48.160;11.452;2023-08-20T04:49:42;19.50;99.90
30473;DHT22;17263;48.160;11.452;2023-08-20T04:52:11;19.60;99.90
30473;DHT22;17263;48.160;11.452;2023-08-20T04:54:37;19.60;99.90
30473;DHT22;17263;48.160;11.452;2023-08-20T04:57:04;19.60;99.90
30473;DHT22;17263;48.160;11.452;2023-08-20T04:59:30;19.60;99.90
30473;DHT22;17263;48.160;11.452;2023-08-20T05:01:56;19.60;99.90
30473;DHT22;17263;48.160;11.452;2023-08-20T05:04:22;19.60;99.90
30473;DHT22;17263;48.160;11.452;2023-08-20T05:06:52;19.60;99.90
30473;DHT22;17263;48.160;11.452;2023-08-20T05:09:21;19.70;99.90
30473;DHT22;17263;48.160;11.452;2023-08-20T05:11:48;19.70;99.90
30473;DHT22;17263;48.160;11.452;2023-08-20T05:14:14;19.70;99.90
30473;DHT22;17263;48.160;11.452;2023-08-20T05:16:40;19.80;99.90
30473;DHT22;17263;48.160;11.452;2023-08-20T05:19:06;19.90;99.90
30473;DHT22;17263;48.160;11.452;2023-08-20T05:21:35;20.00;99.90
30473;DHT22;17263;48.160;11.452;2023-08-20T05:24:01;20.10;99.90
30473;DHT22;17263;48.160;11.452;2023-08-20T05:26:27;20.40;99.90
30473;DHT22;17263;48.160;11.452;2023-08-20T05:29:00;21.00;99.90
30473;DHT22;17263;48.160;11.452;2023-08-20T05:31:26;21.70;99.90
30473;DHT22;17263;48.160;11.452;2023-08-20T05:33:52;22.70;99.90
30473;DHT22;17263;48.160;11.452;2023-08-20T05:36:22;23.60;99.90
30473;DHT22;17263;48.160;11.452;2023-08-20T05:38:49;24.50;99.90
30473;DHT22;17263;48.160;11.452;2023-08-20T05:41:15;25.20;99.90
30473;DHT22;17263;48.160;11.452;2023-08-20T05:43:41;25.80;99.90
30473;DHT22;17263;48.160;11.452;2023-08-20T05:46:07;26.40;99.90
30473;DHT22;17263;48.160;11.452;2023-08-20T05:48:36;26.80;99.90
30473;DHT22;17263;48.160;11.452;2023-08-20T05:51:05;27.20;99.90
30473;DHT22;17263;48.160;11.452;2023-08-20T05:53:36;27.60;99.90
30473;DHT22;17263;48.160;11.452;2023-08-20T05:56:03;28.00;99.90
30473;DHT22;17263;48.160;11.452;2023-08-20T05:58:29;28.30;99.90
30473;DHT22;17263;48.160;11.452;2023-08-20T06:00:55;28.60;99.90
30473;DHT22;17263;48.160;11.452;2023-08-20T06:03:21;29.00;99.90
30473;DHT22;17263;48.160;11.452;2023-08-20T06:05:47;29.30;99.90
30473;DHT22;17263;48.160;11.452;2023-08-20T06:08:13;29.60;99.90
30473;DHT22;17263;48.160;11.452;2023-08-20T06:10:39;29.70;99.90
30473;DHT22;17263;48.160;11.452;2023-08-20T06:13:05;29.90;99.90
30473;DHT22;17263;48.160;11.452;2023-08-20T06:15:31;30.20;99.30
30473;DHT22;17263;48.160;11.452;2023-08-20T06:17:57;30.40;98.30
30473;DHT22;17263;48.160;11.452;2023-08-20T06:20:23;30.40;97.40
30473;DHT22;17263;48.160;11.452;2023-08-20T06:22:49;30.40;97.70
30473;DHT22;17263;48.160;11.452;2023-08-20T06:25:15;30.50;96.10
30473;DHT22;17263;48.160;11.452;2023-08-20T06:27:41;30.60;95.60
30473;DHT22;17263;48.160;11.452;2023-08-20T06:30:08;30.80;95.70
30473;DHT22;17263;48.160;11.452;2023-08-20T06:32:34;31.20;95.30
30473;DHT22;17263;48.160;11.452;2023-08-20T06:35:02;31.50;93.40
30473;DHT22;17263;48.160;11.452;2023-08-20T06:37:28;31.60;92.40
30473;DHT22;17263;48.160;11.452;2023-08-20T06:39:54;31.50;92.90
30473;DHT22;17263;48.160;11.452;2023-08-20T06:42:21;31.80;92.30
30473;DHT22;17263;48.160;11.452;2023-08-20T06:44:47;32.10;91.80
30473;DHT22;17263;48.160;11.452;2023-08-20T06:47:16;32.60;90.70
30473;DHT22;17263;48.160;11.452;2023-08-20T06:49:42;32.90;89.80
30473;DHT22;17263;48.160;11.452;2023-08-20T06:52:08;33.10;88.70
30473;DHT22;17263;48.160;11.452;2023-08-20T06:54:34;33.40;86.00
30473;DHT22;17263;48.160;11.452;2023-08-20T06:57:00;33.60;84.40
30473;DHT22;17263;48.160;11.452;2023-08-20T06:59:29;33.70;83.10
30473;DHT22;17263;48.160;11.452;2023-08-20T07:01:55;33.90;82.00
30473;DHT22;17263;48.160;11.452;2023-08-20T07:04:21;34.00;80.10
30473;DHT22;17263;48.160;11.452;2023-08-20T07:06:47;33.80;79.10
30473;DHT22;17263;48.160;11.452;2023-08-20T07:09:14;33.70;80.10
30473;DHT22;17263;48.160;11.452;2023-08-20T07:11:40;34.00;78.90
30473;DHT22;17263;48.160;11.452;2023-08-20T07:14:06;34.30;78.10
30473;DHT22;17263;48.160;11.452;2023-08-20T07:16:32;34.40;75.50
30473;DHT22;17263;48.160;11.452;2023-08-20T07:18:58;34.70;74.10
30473;DHT22;17263;48.160;11.452;2023-08-20T07:21:24;34.80;72.90
30473;DHT22;17263;48.160;11.452;2023-08-20T07:23:50;35.00;72.60
30473;DHT22;17263;48.160;11.452;2023-08-20T07:26:16;35.10;71.40
30473;DHT22;17263;48.160;11.452;2023-08-20T07:28:43;34.90;70.70
30473;DHT22;17263;48.160;11.452;2023-08-20T07:31:29;35.00;69.70
30473;DHT22;17263;48.160;11.452;2023-08-20T07:33:56;35.00;69.80
30473;DHT22;17263;48.160;11.452;2023-08-20T07:36:25;35.20;68.70
30473;DHT22;17263;48.160;11.452;2023-08-20T07:38:52;35.30;67.80
30473;DHT22;17263;48.160;11.452;2023-08-20T07:41:20;35.30;67.80
30473;DHT22;17263;48.160;11.452;2023-08-20T07:43:49;35.40;68.40
30473;DHT22;17263;48.160;11.452;2023-08-20T07:46:15;35.70;67.60
30473;DHT22;17263;48.160;11.452;2023-08-20T07:48:42;35.90;67.00
30473;DHT22;17263;48.160;11.452;2023-08-20T07:51:09;36.00;64.30
30473;DHT22;17263;48.160;11.452;2023-08-20T07:53:38;36.20;62.80
30473;DHT22;17263;48.160;11.452;2023-08-20T07:56:04;36.30;62.70
30473;DHT22;17263;48.160;11.452;2023-08-20T07:58:30;36.30;62.30
30473;DHT22;17263;48.160;11.452;2023-08-20T08:00:56;36.30;62.90
30473;DHT22;17263;48.160;11.452;2023-08-20T08:03:25;36.40;62.30
30473;DHT22;17263;48.160;11.452;2023-08-20T08:05:51;36.40;60.90
30473;DHT22;17263;48.160;11.452;2023-08-20T08:08:20;36.30;60.90
30473;DHT22;17263;48.160;11.452;2023-08-20T08:10:47;36.40;61.30
30473;DHT22;17263;48.160;11.452;2023-08-20T08:13:14;36.50;58.60
30473;DHT22;17263;48.160;11.452;2023-08-20T08:15:40;36.40;59.40
30473;DHT22;17263;48.160;11.452;2023-08-20T08:18:07;36.50;59.10
30473;DHT22;17263;48.160;11.452;2023-08-20T08:20:33;36.50;59.20
30473;DHT22;17263;48.160;11.452;2023-08-20T08:23:00;36.20;59.30
30473;DHT22;17263;48.160;11.452;2023-08-20T08:25:27;36.10;60.50
30473;DHT22;17263;48.160;11.452;2023-08-20T08:27:53;36.10;60.10
30473;DHT22;17263;48.160;11.452;2023-08-20T08:30:19;36.20;58.70
30473;DHT22;17263;48.160;11.452;2023-08-20T08:32:45;36.10;59.00
30473;DHT22;17263;48.160;11.452;2023-08-20T08:35:13;36.00;57.50
30473;DHT22;17263;48.160;11.452;2023-08-20T08:37:39;36.00;57.50
30473;DHT22;17263;48.160;11.452;2023-08-20T08:40:06;36.10;58.10
30473;DHT22;17263;48.160;11.452;2023-08-20T08:42:33;36.10;58.40
30473;DHT22;17263;48.160;11.452;2023-08-20T08:45:03;36.20;57.50
30473;DHT22;17263;48.160;11.452;2023-08-20T08:47:29;36.20;57.70
30473;DHT22;17263;48.160;11.452;2023-08-20T08:49:56;36.30;56.90
30473;DHT22;17263;48.160;11.452;2023-08-20T08:52:23;36.30;56.50
30473;DHT22;17263;48.160;11.452;2023-08-20T08:54:49;36.10;56.80
30473;DHT22;17263;48.160;11.452;2023-08-20T08:57:15;35.90;57.10
30473;DHT22;17263;48.160;11.452;2023-08-20T08:59:42;35.60;56.30
30473;DHT22;17263;48.160;11.452;2023-08-20T09:02:10;35.40;58.10
30473;DHT22;17263;48.160;11.452;2023-08-20T09:04:40;35.50;57.80
30473;DHT22;17263;48.160;11.452;2023-08-20T09:07:14;35.50;58.40
30473;DHT22;17263;48.160;11.452;2023-08-20T09:09:45;35.70;58.10
30473;DHT22;17263;48.160;11.452;2023-08-20T09:12:15;35.90;57.70
30473;DHT22;17263;48.160;11.452;2023-08-20T09:14:49;35.80;55.50
30473;DHT22;17263;48.160;11.452;2023-08-20T09:17:16;35.60;55.20
30473;DHT22;17263;48.160;11.452;2023-08-20T09:19:44;35.40;55.40
30473;DHT22;17263;48.160;11.452;2023-08-20T09:22:14;35.50;57.20
30473;DHT22;17263;48.160;11.452;2023-08-20T09:24:41;35.60;56.40
30473;DHT22;17263;48.160;11.452;2023-08-20T09:27:11;35.70;56.60
30473;DHT22;17263;48.160;11.452;2023-08-20T09:29:52;35.80;55.70
30473;DHT22;17263;48.160;11.452;2023-08-20T09:32:21;35.60;55.30
30473;DHT22;17263;48.160;11.452;2023-08-20T09:34:51;35.60;55.10
30473;DHT22;17263;48.160;11.452;2023-08-20T09:37:19;35.40;55.10
30473;DHT22;17263;48.160;11.452;2023-08-20T09:39:45;35.40;55.20
30473;DHT22;17263;48.160;11.452;2023-08-20T09:42:12;35.40;54.90
30473;DHT22;17263;48.160;11.452;2023-08-20T09:44:41;35.40;54.30
30473;DHT22;17263;48.160;11.452;2023-08-20T09:47:10;35.20;54.20
30473;DHT22;17263;48.160;11.452;2023-08-20T09:49:55;34.70;55.20
30473;DHT22;17263;48.160;11.452;2023-08-20T09:52:35;34.50;56.90
30473;DHT22;17263;48.160;11.452;2023-08-20T09:55:09;34.00;56.10
30473;DHT22;17263;48.160;11.452;2023-08-20T09:57:37;33.70;57.00
30473;DHT22;17263;48.160;11.452;2023-08-20T10:00:05;33.50;57.00
30473;DHT22;17263;48.160;11.452;2023-08-20T10:02:33;33.30;57.90
30473;DHT22;17263;48.160;11.452;2023-08-20T10:04:59;33.20;58.30
30473;DHT22;17263;48.160;11.452;2023-08-20T10:07:29;33.10;57.60
30473;DHT22;17263;48.160;11.452;2023-08-20T10:10:01;33.00;57.20
30473;DHT22;17263;48.160;11.452;2023-08-20T10:12:28;32.80;58.30
30473;DHT22;17263;48.160;11.452;2023-08-20T10:14:56;32.70;59.10
30473;DHT22;17263;48.160;11.452;2023-08-20T10:17:23;32.70;59.90
30473;DHT22;17263;48.160;11.452;2023-08-20T10:19:50;32.60;59.90
30473;DHT22;17263;48.160;11.452;2023-08-20T10:22:17;32.50;61.90
30473;DHT22;17263;48.160;11.452;2023-08-20T10:24:52;32.30;61.60
30473;DHT22;17263;48.160;11.452;2023-08-20T10:27:27;32.20;61.90
30473;DHT22;17263;48.160;11.452;2023-08-20T10:29:54;32.20;60.70
30473;DHT22;17263;48.160;11.452;2023-08-20T10:32:43;32.10;61.60
30473;DHT22;17263;48.160;11.452;2023-08-20T10:35:07;32.00;61.10
30473;DHT22;17263;48.160;11.452;2023-08-20T10:37:34;31.90;60.40
30473;DHT22;17263;48.160;11.452;2023-08-20T10:40:02;31.80;59.20
30473;DHT22;17263;48.160;11.452;2023-08-20T10:42:30;31.70;60.20
30473;DHT22;17263;48.160;11.452;2023-08-20T10:45:05;31.70;60.40
30473;DHT22;17263;48.160;11.452;2023-08-20T10:47:43;31.80;61.60
30473;DHT22;17263;48.160;11.452;2023-08-20T10:50:15;31.70;62.90
30473;DHT22;17263;48.160;11.452;2023-08-20T10:52:54;31.70;63.30
30473;DHT22;17263;48.160;11.452;2023-08-20T10:55:24;31.60;64.20
30473;DHT22;17263;48.160;11.452;2023-08-20T10:57:57;31.50;63.80
30473;DHT22;17263;48.160;11.452;2023-08-20T11:00:23;31.50;62.20
30473;DHT22;17263;48.160;11.452;2023-08-20T11:02:49;31.40;63.10
30473;DHT22;17263;48.160;11.452;2023-08-20T11:05:17;31.30;64.50
30473;DHT22;17263;48.160;11.452;2023-08-20T11:07:45;31.30;64.30
30473;DHT22;17263;48.160;11.452;2023-08-20T11:10:15;31.50;64.50
30473;DHT22;17263;48.160;11.452;2023-08-20T11:12:46;31.50;64.50
30473;DHT22;17263;48.160;11.452;2023-08-20T11:15:12;31.50;63.10
30473;DHT22;17263;48.160;11.452;2023-08-20T11:17:47;31.60;63.70
30473;DHT22;17263;48.160;11.452;2023-08-20T11:20:17;31.50;63.00
30473;DHT22;17263;48.160;11.452;2023-08-20T11:22:43;31.50;63.40
30473;DHT22;17263;48.160;11.452;2023-08-20T11:25:12;31.50;63.80
30473;DHT22;17263;48.160;11.452;2023-08-20T11:27:44;31.60;64.10
30473;DHT22;17263;48.160;11.452;2023-08-20T11:30:11;31.60;63.50
30473;DHT22;17263;48.160;11.452;2023-08-20T11:32:39;31.80;63.90
30473;DHT22;17263;48.160;11.452;2023-08-20T11:35:07;31.90;63.60
30473;DHT22;17263;48.160;11.452;2023-08-20T11:37:34;31.90;62.50
30473;DHT22;17263;48.160;11.452;2023-08-20T11:40:00;31.80;63.30
30473;DHT22;17263;48.160;11.452;2023-08-20T11:42:26;31.90;62.20
30473;DHT22;17263;48.160;11.452;2023-08-20T11:44:55;31.90;63.00
30473;DHT22;17263;48.160;11.452;2023-08-20T11:47:21;32.00;61.80
30473;DHT22;17263;48.160;11.452;2023-08-20T11:49:47;32.00;61.40
30473;DHT22;17263;48.160;11.452;2023-08-20T11:52:13;32.00;62.10
30473;DHT22;17263;48.160;11.452;2023-08-20T11:54:41;32.00;61.60
30473;DHT22;17263;48.160;11.452;2023-08-20T11:57:07;32.00;61.50
30473;DHT22;17263;48.160;11.452;2023-08-20T11:59:34;32.10;61.20
30473;DHT22;17263;48.160;11.452;2023-08-20T12:02:01;32.20;59.80
30473;DHT22;17263;48.160;11.452;2023-08-20T12:04:31;32.20;60.10
30473;DHT22;17263;48.160;11.452;2023-08-20T12:07:13;32.20;60.40
30473;DHT22;17263;48.160;11.452;2023-08-20T12:09:39;32.10;60.00
30473;DHT22;17263;48.160;11.452;2023-08-20T12:12:07;32.20;60.30
30473;DHT22;17263;48.160;11.452;2023-08-20T12:14:34;32.30;60.20
30473;DHT22;17263;48.160;11.452;2023-08-20T12:17:00;32.10;59.90
30473;DHT22;17263;48.160;11.452;2023-08-20T12:19:26;32.20;60.60
30473;DHT22;17263;48.160;11.452;2023-08-20T12:21:52;32.20;59.20
30473;DHT22;17263;48.160;11.452;2023-08-20T12:24:18;32.20;59.90
30473;DHT22;17263;48.160;11.452;2023-08-20T12:26:47;32.30;58.80
30473;DHT22;17263;48.160;11.452;2023-08-20T12:29:13;32.40;58.70
30473;DHT22;17263;48.160;11.452;2023-08-20T12:31:40;32.50;58.80
30473;DHT22;17263;48.160;11.452;2023-08-20T12:34:06;32.60;58.00
30473;DHT22;17263;48.160;11.452;2023-08-20T12:36:34;32.50;56.70
30473;DHT22;17263;48.160;11.452;2023-08-20T12:39:00;32.50;57.10
30473;DHT22;17263;48.160;11.452;2023-08-20T12:41:26;32.30;56.90
30473;DHT22;17263;48.160;11.452;2023-08-20T12:43:52;32.30;58.10
30473;DHT22;17263;48.160;11.452;2023-08-20T12:46:18;32.40;58.40
30473;DHT22;17263;48.160;11.452;2023-08-20T12:48:44;32.40;59.00
30473;DHT22;17263;48.160;11.452;2023-08-20T12:51:10;32.50;58.80
30473;DHT22;17263;48.160;11.452;2023-08-20T12:53:39;32.60;57.50
30473;DHT22;17263;48.160;11.452;2023-08-20T12:56:05;32.60;58.40
30473;DHT22;17263;48.160;11.452;2023-08-20T12:58:31;32.60;58.00
30473;DHT22;17263;48.160;11.452;2023-08-20T13:00:57;32.50;58.80
30473;DHT22;17263;48.160;11.452;2023-08-20T13:03:24;32.40;57.60
30473;DHT22;17263;48.160;11.452;2023-08-20T13:05:50;32.20;59.40
30473;DHT22;17263;48.160;11.452;2023-08-20T13:08:16;32.10;59.80
30473;DHT22;17263;48.160;11.452;2023-08-20T13:10:50;32.20;59.40
30473;DHT22;17263;48.160;11.452;2023-08-20T13:13:20;32.20;59.70
30473;DHT22;17263;48.160;11.452;2023-08-20T13:15:48;32.10;59.80
30473;DHT22;17263;48.160;11.452;2023-08-20T13:18:14;32.10;59.30
30473;DHT22;17263;48.160;11.452;2023-08-20T13:20:41;32.10;59.40
30473;DHT22;17263;48.160;11.452;2023-08-20T13:23:08;32.20;58.70
30473;DHT22;17263;48.160;11.452;2023-08-20T13:25:34;32.20;59.10
30473;DHT22;17263;48.160;11.452;2023-08-20T13:28:00;32.30;58.30
30473;DHT22;17263;48.160;11.452;2023-08-20T13:30:26;32.40;58.60
30473;DHT22;17263;48.160;11.452;2023-08-20T13:32:52;32.40;57.60
30473;DHT22;17263;48.160;11.452;2023-08-20T13:35:18;32.40;58.20
30473;DHT22;17263;48.160;11.452;2023-08-20T13:37:44;32.40;58.90
30473;DHT22;17263;48.160;11.452;2023-08-20T13:40:11;32.40;58.30
30473;DHT22;17263;48.160;11.452;2023-08-20T13:42:37;32.40;57.40
30473;DHT22;17263;48.160;11.452;2023-08-20T13:45:03;32.40;57.10
30473;DHT22;17263;48.160;11.452;2023-08-20T13:47:30;32.40;57.20
30473;DHT22;17263;48.160;11.452;2023-08-20T13:49:56;32.40;58.40
30473;DHT22;17263;48.160;11.452;2023-08-20T13:52:22;32.30;58.00
30473;DHT22;17263;48.160;11.452;2023-08-20T13:54:48;32.20;58.30
30473;DHT22;17263;48.160;11.452;2023-08-20T13:57:14;32.10;59.10
30473;DHT22;17263;48.160;11.452;2023-08-20T13:59:40;32.20;58.80
30473;DHT22;17263;48.160;11.452;2023-08-20T14:02:06;32.20;58.80
30473;DHT22;17263;48.160;11.452;2023-08-20T14:04:33;32.10;59.70
30473;DHT22;17263;48.160;11.452;2023-08-20T14:06:59;32.20;59.00
30473;DHT22;17263;48.160;11.452;2023-08-20T14:09:25;32.30;58.80
30473;DHT22;17263;48.160;11.452;2023-08-20T14:11:51;32.20;59.70
30473;DHT22;17263;48.160;11.452;2023-08-20T14:14:17;32.10;59.70
30473;DHT22;17263;48.160;11.452;2023-08-20T14:16:43;32.10;59.20
30473;DHT22;17263;48.160;11.452;2023-08-20T14:19:09;32.10;59.10
30473;DHT22;17263;48.160;11.452;2023-08-20T14:21:36;32.00;59.30
30473;DHT22;17263;48.160;11.452;2023-08-20T14:24:03;32.00;59.60
30473;DHT22;17263;48.160;11.452;2023-08-20T14:26:29;31.90;60.30
30473;DHT22;17263;48.160;11.452;2023-08-20T14:28:55;31.90;59.70
30473;DHT22;17263;48.160;11.452;2023-08-20T14:31:21;32.00;59.60
30473;DHT22;17263;48.160;11.452;2023-08-20T14:33:47;31.90;60.10
30473;DHT22;17263;48.160;11.452;2023-08-20T14:36:13;31.90;59.80
30473;DHT22;17263;48.160;11.452;2023-08-20T14:38:39;31.90;60.80
30473;DHT22;17263;48.160;11.452;2023-08-20T14:41:05;31.90;60.80
30473;DHT22;17263;48.160;11.452;2023-08-20T14:43:32;32.00;59.60
30473;DHT22;17263;48.160;11.452;2023-08-20T14:45:58;32.00;59.70
30473;DHT22;17263;48.160;11.452;2023-08-20T14:48:24;32.00;61.00
30473;DHT22;17263;48.160;11.452;2023-08-20T14:50:51;32.00;61.40
30473;DHT22;17263;48.160;11.452;2023-08-20T14:53:18;32.10;61.00
30473;DHT22;17263;48.160;11.452;2023-08-20T14:55:45;32.10;62.00
30473;DHT22;17263;48.160;11.452;2023-08-20T14:58:11;32.20;60.90
30473;DHT22;17263;48.160;11.452;2023-08-20T15:00:37;32.20;60.60
30473;DHT22;17263;48.160;11.452;2023-08-20T15:03:03;32.10;62.10
30473;DHT22;17263;48.160;11.452;2023-08-20T15:05:30;32.10;63.30
30473;DHT22;17263;48.160;11.452;2023-08-20T15:07:56;32.10;63.10
30473;DHT22;17263;48.160;11.452;2023-08-20T15:10:22;32.20;63.20
30473;DHT22;17263;48.160;11.452;2023-08-20T15:12:48;32.30;61.80
30473;DHT22;17263;48.160;11.452;2023-08-20T15:15:14;32.30;62.80
30473;DHT22;17263;48.160;11.452;2023-08-20T15:17:40;32.10;62.40